createdAt,value
2023-01-27T00:00:38.715Z,0.71
2023-01-27T00:03:05.841Z,0.70
2023-01-27T00:05:32.456Z,0.68
2023-01-27T00:07:59.178Z,0.65
2023-01-27T00:10:27.355Z,0.64
2023-01-27T00:13:12.609Z,0.65
2023-01-27T00:15:39.936Z,0.66
2023-01-27T00:18:07.091Z,0.69
2023-01-27T00:20:52.210Z,0.68
2023-01-27T00:23:38.176Z,0.69
2023-01-27T00:26:06.894Z,0.69
2023-01-27T00:28:37.616Z,0.68
2023-01-27T00:31:05.092Z,0.69
2023-01-27T00:33:32.138Z,0.68
2023-01-27T00:36:00.495Z,0.71
2023-01-27T00:38:32.523Z,0.71
2023-01-27T00:41:17.486Z,0.71
2023-01-27T00:43:44.040Z,0.71
2023-01-27T00:46:10.671Z,0.72
2023-01-27T00:48:37.392Z,0.70
2023-01-27T00:51:04.236Z,0.72
2023-01-27T00:53:31.462Z,0.74
2023-01-27T00:55:58.621Z,0.79
2023-01-27T00:58:29.102Z,0.80
2023-01-27T01:00:59.393Z,0.78
2023-01-27T01:03:28.486Z,0.77
2023-01-27T01:05:55.052Z,0.75
2023-01-27T01:08:21.618Z,0.72
2023-01-27T01:10:48.201Z,0.68
2023-01-27T01:13:14.805Z,0.64
2023-01-27T01:15:42.355Z,0.65
2023-01-27T01:18:10.742Z,0.63
2023-01-27T01:20:43.238Z,0.60
2023-01-27T01:23:10.785Z,0.58
2023-01-27T01:25:37.636Z,0.58
2023-01-27T01:28:05.686Z,0.59
2023-01-27T01:30:34.937Z,0.59
2023-01-27T01:33:01.928Z,0.57
2023-01-27T01:35:28.522Z,0.53
2023-01-27T01:37:55.204Z,0.52
2023-01-27T01:40:25.514Z,0.50
2023-01-27T01:43:00.163Z,0.46
2023-01-27T01:45:33.647Z,0.46
2023-01-27T01:48:22.073Z,0.46
2023-01-27T01:50:54.266Z,0.45
2023-01-27T01:53:27.292Z,0.43
2023-01-27T01:55:54.012Z,0.43
2023-01-27T01:58:21.095Z,0.42
2023-01-27T02:00:47.903Z,0.41
2023-01-27T02:03:15.134Z,0.39
2023-01-27T02:05:45.140Z,0.38
2023-01-27T02:08:24.627Z,0.32
2023-01-27T02:10:54.403Z,0.33
2023-01-27T02:13:21.763Z,0.36
2023-01-27T02:15:50.530Z,0.35
2023-01-27T02:18:18.163Z,0.37
2023-01-27T02:20:53.748Z,0.35
2023-01-27T02:23:32.180Z,0.37
2023-01-27T02:26:17.796Z,0.34
2023-01-27T02:28:44.702Z,0.30
2023-01-27T02:31:11.466Z,0.23
2023-01-27T02:33:38.140Z,0.17
2023-01-27T02:36:16.671Z,0.10
2023-01-27T02:38:50.539Z,0.08
2023-01-27T02:41:22.764Z,0.05
2023-01-27T02:43:49.819Z,0.03
2023-01-27T02:46:16.523Z,-0.05
2023-01-27T02:48:43.205Z,-0.12
2023-01-27T02:51:10.653Z,-0.17
2023-01-27T02:53:37.241Z,-0.17
2023-01-27T02:56:04.009Z,-0.19
2023-01-27T02:58:30.654Z,-0.21
2023-01-27T03:00:57.230Z,-0.23
2023-01-27T03:03:23.913Z,-0.31
2023-01-27T03:05:51.525Z,-0.34
2023-01-27T03:08:19.191Z,-0.39
2023-01-27T03:10:50.780Z,-0.43
2023-01-27T03:13:21.387Z,-0.45
2023-01-27T03:16:06.684Z,-0.45
2023-01-27T03:18:33.380Z,-0.48
2023-01-27T03:21:06.026Z,-0.50
2023-01-27T03:23:36.475Z,-0.50
2023-01-27T03:26:06.912Z,-0.50
2023-01-27T03:28:33.733Z,-0.48
2023-01-27T03:31:08.522Z,-0.54
2023-01-27T03:33:35.371Z,-0.56
2023-01-27T03:36:23.516Z,-0.58
2023-01-27T03:39:08.409Z,-0.56
2023-01-27T03:41:53.843Z,-0.56
2023-01-27T03:44:38.611Z,-0.56
2023-01-27T03:47:05.169Z,-0.54
2023-01-27T03:49:31.756Z,-0.56
2023-01-27T03:51:58.968Z,-0.56
2023-01-27T03:54:25.506Z,-0.53
2023-01-27T03:56:52.057Z,-0.51
2023-01-27T03:59:18.663Z,-0.52
2023-01-27T04:01:45.313Z,-0.52
2023-01-27T04:04:30.429Z,-0.51
2023-01-27T04:07:02.838Z,-0.49
2023-01-27T04:09:35.836Z,-0.49
2023-01-27T04:12:06.877Z,-0.47
2023-01-27T04:14:43.062Z,-0.48
2023-01-27T04:17:15.169Z,-0.49
2023-01-27T04:19:42.052Z,-0.49
2023-01-27T04:22:11.060Z,-0.50
2023-01-27T04:24:37.721Z,-0.51
2023-01-27T04:27:12.759Z,-0.55
2023-01-27T04:29:41.590Z,-0.56
2023-01-27T04:32:10.267Z,-0.58
2023-01-27T04:34:37.475Z,-0.60
2023-01-27T04:37:05.668Z,-0.59
2023-01-27T04:39:32.815Z,-0.62
2023-01-27T04:41:59.516Z,-0.65
2023-01-27T04:44:26.609Z,-0.71
2023-01-27T04:46:54.755Z,-0.78
2023-01-27T04:49:21.357Z,-0.82
2023-01-27T04:51:47.933Z,-0.87
2023-01-27T04:54:14.652Z,-0.91
2023-01-27T04:56:53.549Z,-0.93
2023-01-27T04:59:20.125Z,-0.98
2023-01-27T05:01:46.727Z,-1.02
2023-01-27T05:04:13.261Z,-1.07
2023-01-27T05:06:39.832Z,-1.10
2023-01-27T05:09:06.432Z,-1.15
2023-01-27T05:11:32.966Z,-1.19
2023-01-27T05:13:59.505Z,-1.23
2023-01-27T05:16:27.574Z,-1.20
2023-01-27T05:18:54.666Z,-1.22
2023-01-27T05:21:23.864Z,-1.22
2023-01-27T05:23:50.778Z,-1.26
2023-01-27T05:26:20.377Z,-1.32
2023-01-27T05:28:48.907Z,-1.33
2023-01-27T05:31:21.693Z,-1.36
2023-01-27T05:33:50.874Z,-1.42
2023-01-27T05:36:19.605Z,-1.45
2023-01-27T05:38:46.791Z,-1.49
2023-01-27T05:41:15.119Z,-1.56
2023-01-27T05:43:43.670Z,-1.60
2023-01-27T05:46:16.473Z,-1.66
2023-01-27T05:48:54.497Z,-1.69
2023-01-27T05:51:23.471Z,-1.72
2023-01-27T05:53:50.609Z,-1.71
2023-01-27T05:56:19.623Z,-1.78
2023-01-27T05:58:46.206Z,-1.78
2023-01-27T06:01:13.829Z,-1.80
2023-01-27T06:03:41.286Z,-1.81
2023-01-27T06:06:09.594Z,-1.80
2023-01-27T06:08:37.271Z,-1.78
2023-01-27T06:11:04.543Z,-1.79
2023-01-27T06:13:31.502Z,-1.79
2023-01-27T06:15:58.171Z,-1.78
2023-01-27T06:18:24.852Z,-1.76
2023-01-27T06:20:51.434Z,-1.76
2023-01-27T06:23:18.406Z,-1.75
2023-01-27T06:25:48.048Z,-1.71
2023-01-27T06:28:28.160Z,-1.62
2023-01-27T06:30:56.398Z,-1.54
2023-01-27T06:33:23.384Z,-1.48
2023-01-27T06:35:50.132Z,-1.49
2023-01-27T06:38:16.790Z,-1.47
2023-01-27T06:40:44.312Z,-1.41
2023-01-27T06:43:14.435Z,-1.31
2023-01-27T06:45:41.172Z,-1.22
2023-01-27T06:48:11.237Z,-1.15
2023-01-27T06:50:37.807Z,-1.09
2023-01-27T06:53:07.225Z,-1.04
2023-01-27T06:55:35.571Z,-1.01
2023-01-27T06:58:03.007Z,-0.98
2023-01-27T07:00:30.143Z,-0.92
2023-01-27T07:02:57.344Z,-0.88
2023-01-27T07:05:24.687Z,-0.82
2023-01-27T07:07:51.687Z,-0.73
2023-01-27T07:10:18.375Z,-0.68
2023-01-27T07:12:45.187Z,-0.62
2023-01-27T07:15:12.389Z,-0.54
2023-01-27T07:17:39.096Z,-0.47
2023-01-27T07:20:08.133Z,-0.42
2023-01-27T07:22:34.729Z,-0.35
2023-01-27T07:25:02.159Z,-0.28
2023-01-27T07:27:29.500Z,-0.22
2023-01-27T07:29:56.207Z,-0.15
2023-01-27T07:32:22.792Z,-0.08
2023-01-27T07:34:49.392Z,-0.01
2023-01-27T07:37:15.984Z,0.07
2023-01-27T07:39:42.550Z,0.15
2023-01-27T07:42:09.915Z,0.24
2023-01-27T07:44:36.518Z,0.30
2023-01-27T07:47:03.176Z,0.31
2023-01-27T07:49:29.751Z,0.33
2023-01-27T07:51:56.291Z,0.36
2023-01-27T07:54:23.088Z,0.42
2023-01-27T07:56:49.647Z,0.48
2023-01-27T07:59:16.298Z,0.51
2023-01-27T08:01:43.320Z,0.53
2023-01-27T08:04:10.036Z,0.60
2023-01-27T08:06:39.747Z,0.61
2023-01-27T08:09:06.951Z,0.66
2023-01-27T08:11:34.249Z,0.68
2023-01-27T08:14:01.237Z,0.71
2023-01-27T08:16:27.948Z,0.69
2023-01-27T08:18:55.146Z,0.72
2023-01-27T08:21:21.789Z,0.72
2023-01-27T08:23:48.423Z,0.73
2023-01-27T08:26:15.136Z,0.75
2023-01-27T08:28:42.793Z,0.76
2023-01-27T08:31:14.975Z,0.76
2023-01-27T08:33:43.038Z,0.81
2023-01-27T08:36:15.591Z,0.83
2023-01-27T08:38:43.707Z,0.84
2023-01-27T08:41:15.943Z,0.91
2023-01-27T08:43:43.554Z,0.96
2023-01-27T08:46:10.761Z,0.99
2023-01-27T08:48:38.403Z,1.00
2023-01-27T08:51:06.449Z,1.00
2023-01-27T08:53:33.621Z,1.04
2023-01-27T08:56:05.751Z,1.07
2023-01-27T08:58:33.429Z,1.09
2023-01-27T09:01:05.614Z,1.14
2023-01-27T09:03:33.447Z,1.14
2023-01-27T09:06:00.520Z,1.15
2023-01-27T09:08:27.774Z,1.16
2023-01-27T09:10:54.633Z,1.20
2023-01-27T09:13:24.077Z,1.23
2023-01-27T09:15:54.475Z,1.23
2023-01-27T09:18:21.644Z,1.22
2023-01-27T09:20:48.279Z,1.21
2023-01-27T09:23:14.915Z,1.22
2023-01-27T09:25:41.461Z,1.19
2023-01-27T09:28:16.802Z,1.22
2023-01-27T09:30:46.832Z,1.22
2023-01-27T09:33:17.670Z,1.23
2023-01-27T09:35:52.576Z,1.27
2023-01-27T09:38:22.164Z,1.27
2023-01-27T09:41:34.467Z,1.27
2023-01-27T09:44:28.181Z,1.31
2023-01-27T09:47:32.369Z,1.36
2023-01-27T09:50:23.890Z,1.38
2023-01-27T09:53:27.955Z,1.43
2023-01-27T09:56:03.341Z,1.50
2023-01-27T09:58:56.984Z,1.51
2023-01-27T10:01:45.123Z,1.49
2023-01-27T10:04:23.451Z,1.50
2023-01-27T10:07:05.193Z,1.45
2023-01-27T10:10:09.181Z,1.50
2023-01-27T10:13:10.883Z,1.53
2023-01-27T10:16:03.248Z,1.56
2023-01-27T10:18:32.840Z,1.58
2023-01-27T10:21:41.363Z,1.63
2023-01-27T10:24:47.023Z,1.67
2023-01-27T10:27:21.415Z,1.77
2023-01-27T10:30:00.470Z,1.74
2023-01-27T10:32:33.625Z,1.73
2023-01-27T10:35:11.962Z,1.74
2023-01-27T10:37:41.191Z,1.79
2023-01-27T10:40:16.699Z,1.75
2023-01-27T10:43:13.801Z,1.72
2023-01-27T10:46:04.698Z,1.74
2023-01-27T10:48:48.358Z,1.77
2023-01-27T10:51:23.309Z,1.73
2023-01-27T10:54:03.228Z,1.80
2023-01-27T10:56:29.732Z,1.84
2023-01-27T10:58:56.243Z,1.85
2023-01-27T11:01:30.952Z,1.88
2023-01-27T11:04:10.590Z,1.91
2023-01-27T11:06:41.331Z,1.93
2023-01-27T11:09:13.795Z,1.85
2023-01-27T11:11:46.327Z,1.83
2023-01-27T11:14:46.785Z,1.88
2023-01-27T11:17:30.133Z,1.87
2023-01-27T11:19:59.862Z,1.86
2023-01-27T11:22:37.904Z,1.90
2023-01-27T11:25:29.028Z,1.90
2023-01-27T11:28:19.990Z,1.93
2023-01-27T11:31:24.019Z,1.99
2023-01-27T11:34:21.338Z,1.96
2023-01-27T11:36:49.973Z,1.96
2023-01-27T11:39:18.223Z,1.97
2023-01-27T11:41:58.709Z,1.92
2023-01-27T11:44:32.256Z,1.95
2023-01-27T11:46:59.174Z,1.97
2023-01-27T11:49:36.557Z,2.03
2023-01-27T11:52:15.148Z,2.03
2023-01-27T11:54:47.124Z,1.97
2023-01-27T11:57:22.494Z,2.01
2023-01-27T12:00:24.250Z,2.01
2023-01-27T12:03:01.539Z,2.00
2023-01-27T12:05:33.650Z,2.05
2023-01-27T12:08:02.741Z,2.04
2023-01-27T12:10:44.376Z,2.11
2023-01-27T12:13:21.561Z,2.17
2023-01-27T12:15:55.505Z,2.18
2023-01-27T12:18:25.649Z,2.21
2023-01-27T12:21:01.406Z,2.25
2023-01-27T12:23:33.623Z,2.31
2023-01-27T12:26:03.155Z,2.40
2023-01-27T12:28:36.675Z,2.54
2023-01-27T12:31:13.599Z,2.77
2023-01-27T12:33:46.827Z,2.85
2023-01-27T12:36:17.019Z,2.88
2023-01-27T12:38:55.797Z,2.88
2023-01-27T12:41:28.284Z,2.90
2023-01-27T12:44:00.380Z,2.95
2023-01-27T12:46:29.568Z,3.00
2023-01-27T12:49:05.160Z,3.03
2023-01-27T12:51:48.344Z,3.11
2023-01-27T12:54:35.564Z,3.17
2023-01-27T12:57:05.531Z,3.14
2023-01-27T12:59:33.232Z,3.11
2023-01-27T13:02:18.513Z,3.06
2023-01-27T13:04:52.964Z,3.00
2023-01-27T13:07:26.403Z,2.90
2023-01-27T13:09:55.521Z,2.92
2023-01-27T13:12:23.721Z,2.88
2023-01-27T13:14:53.450Z,2.83
2023-01-27T13:17:35.469Z,2.85
2023-01-27T13:20:08.494Z,2.76
2023-01-27T13:22:42.381Z,2.76
2023-01-27T13:25:18.133Z,2.71
2023-01-27T13:27:46.330Z,2.67
2023-01-27T13:30:31.863Z,2.59
2023-01-27T13:33:11.775Z,2.50
2023-01-27T13:35:56.059Z,2.50
2023-01-27T13:38:31.452Z,2.43
2023-01-27T13:40:58.523Z,2.43
2023-01-27T13:43:36.133Z,2.38
2023-01-27T13:46:07.540Z,2.38
2023-01-27T13:48:42.343Z,2.37
2023-01-27T13:51:14.193Z,2.37
2023-01-27T13:53:41.618Z,2.40
2023-01-27T13:56:17.412Z,2.39
2023-01-27T13:58:54.819Z,2.35
2023-01-27T14:01:43.302Z,2.38
2023-01-27T14:04:09.915Z,2.44
2023-01-27T14:06:36.410Z,2.50
2023-01-27T14:09:11.791Z,2.47
2023-01-27T14:11:48.820Z,2.46
2023-01-27T14:14:33.438Z,2.38
2023-01-27T14:17:28.791Z,2.38
2023-01-27T14:20:05.381Z,2.29
2023-01-27T14:22:50.567Z,2.17
2023-01-27T14:25:52.535Z,2.19
2023-01-27T14:29:04.158Z,2.12
2023-01-27T14:31:59.296Z,2.07
2023-01-27T14:34:52.076Z,2.05
2023-01-27T14:37:25.085Z,1.99
2023-01-27T14:40:29.424Z,1.94
2023-01-27T14:43:16.266Z,1.89
2023-01-27T14:46:08.807Z,1.83
2023-01-27T14:48:57.910Z,1.74
2023-01-27T14:51:41.788Z,1.72
2023-01-27T14:54:11.306Z,1.72
2023-01-27T14:57:12.212Z,1.68
2023-01-27T14:59:41.605Z,1.66
2023-01-27T15:02:17.858Z,1.66
2023-01-27T15:05:13.430Z,1.59
2023-01-27T15:07:54.357Z,1.53
2023-01-27T15:10:26.744Z,1.51
2023-01-27T15:13:20.463Z,1.53
2023-01-27T15:16:08.417Z,1.52
2023-01-27T15:19:02.321Z,1.52
2023-01-27T15:21:44.100Z,1.58
2023-01-27T15:24:38.175Z,1.59
2023-01-27T15:27:06.843Z,1.54
2023-01-27T15:29:33.618Z,1.56
2023-01-27T15:32:15.263Z,1.57
2023-01-27T15:34:44.511Z,1.55
2023-01-27T15:37:21.802Z,1.52
2023-01-27T15:40:06.645Z,1.51
2023-01-27T15:43:11.617Z,1.53
2023-01-27T15:45:43.611Z,1.53
2023-01-27T15:48:10.176Z,1.47
2023-01-27T15:50:39.745Z,1.43
2023-01-27T15:53:15.872Z,1.45
2023-01-27T15:55:55.008Z,1.50
2023-01-27T15:58:28.709Z,1.52
2023-01-27T16:00:57.799Z,1.46
2023-01-27T16:03:32.491Z,1.42
2023-01-27T16:06:02.125Z,1.41
2023-01-27T16:08:37.307Z,1.36
2023-01-27T16:11:22.389Z,1.31
2023-01-27T16:13:48.887Z,1.28
2023-01-27T16:16:18.348Z,1.25
2023-01-27T16:18:57.461Z,1.24
2023-01-27T16:21:52.138Z,1.22
2023-01-27T16:24:43.381Z,1.24
2023-01-27T16:27:32.439Z,1.23
2023-01-27T16:30:20.800Z,1.22
2023-01-27T16:33:21.933Z,1.17
2023-01-27T16:35:59.855Z,1.14
2023-01-27T16:38:38.079Z,1.13
2023-01-27T16:41:16.684Z,1.13
2023-01-27T16:43:49.806Z,1.12
2023-01-27T16:46:46.999Z,1.14
2023-01-27T16:49:25.729Z,1.15
2023-01-27T16:51:56.818Z,1.18
2023-01-27T16:54:39.928Z,1.19
2023-01-27T16:57:08.455Z,1.16
2023-01-27T16:59:38.552Z,1.15
2023-01-27T17:02:19.985Z,1.17
2023-01-27T17:04:53.030Z,1.16
2023-01-27T17:07:19.816Z,1.18
2023-01-27T17:09:52.145Z,1.16
2023-01-27T17:12:36.269Z,1.12
2023-01-27T17:15:18.124Z,1.11
2023-01-27T17:17:45.108Z,1.12
2023-01-27T17:20:26.112Z,1.11
2023-01-27T17:22:54.569Z,1.13
2023-01-27T17:25:32.191Z,1.11
2023-01-27T17:28:01.597Z,1.10
2023-01-27T17:30:35.292Z,1.10
2023-01-27T17:33:05.145Z,1.07
2023-01-27T17:35:35.715Z,1.04
2023-01-27T17:38:05.102Z,1.07
2023-01-27T17:40:39.223Z,1.09
2023-01-27T17:43:28.595Z,1.12
2023-01-27T17:46:21.674Z,1.11
2023-01-27T17:48:53.314Z,1.09
2023-01-27T17:51:23.934Z,1.10
2023-01-27T17:53:52.440Z,1.10
2023-01-27T17:56:27.409Z,1.11
2023-01-27T17:58:58.748Z,1.11
2023-01-27T18:01:25.393Z,1.08
2023-01-27T18:03:56.873Z,1.06
2023-01-27T18:06:27.536Z,1.07
2023-01-27T18:08:57.359Z,1.12
2023-01-27T18:11:31.113Z,1.10
2023-01-27T18:14:08.224Z,1.12
2023-01-27T18:16:35.344Z,1.12
2023-01-27T18:19:08.187Z,1.12
2023-01-27T18:21:36.657Z,1.14
2023-01-27T18:24:20.147Z,1.14
2023-01-27T18:26:47.726Z,1.15
2023-01-27T18:29:29.769Z,1.14
2023-01-27T18:32:15.606Z,1.13
2023-01-27T18:34:48.147Z,1.16
2023-01-27T18:37:33.201Z,1.20
2023-01-27T18:40:03.529Z,1.22
2023-01-27T18:42:31.664Z,1.25
2023-01-27T18:44:58.421Z,1.24
2023-01-27T18:47:35.690Z,1.24
2023-01-27T18:50:12.143Z,1.24
2023-01-27T18:52:39.260Z,1.23
2023-01-27T18:55:16.972Z,1.23
2023-01-27T18:57:44.479Z,1.21
2023-01-27T19:00:14.808Z,1.22
2023-01-27T19:02:46.440Z,1.22
2023-01-27T19:05:21.786Z,1.25
2023-01-27T19:07:48.711Z,1.25
2023-01-27T19:10:18.918Z,1.23
2023-01-27T19:12:45.955Z,1.19
2023-01-27T19:15:14.934Z,1.20
2023-01-27T19:17:43.670Z,1.22
2023-01-27T19:20:19.320Z,1.22
2023-01-27T19:22:47.129Z,1.25
2023-01-27T19:25:14.229Z,1.27
2023-01-27T19:27:46.552Z,1.30
2023-01-27T19:30:37.425Z,1.31
2023-01-27T19:33:15.481Z,1.33
2023-01-27T19:35:44.145Z,1.33
2023-01-27T19:38:12.300Z,1.34
2023-01-27T19:40:39.298Z,1.34
2023-01-27T19:43:05.917Z,1.35
2023-01-27T19:45:32.777Z,1.33
2023-01-27T19:47:59.977Z,1.37
2023-01-27T19:50:30.471Z,1.36
2023-01-27T19:52:58.189Z,1.32
2023-01-27T19:55:25.762Z,1.31
2023-01-27T19:57:52.965Z,1.31
2023-01-27T20:00:22.354Z,1.29
2023-01-27T20:02:49.129Z,1.28
2023-01-27T20:05:16.334Z,1.30
2023-01-27T20:07:44.466Z,1.32
2023-01-27T20:10:20.738Z,1.33
2023-01-27T20:13:15.485Z,1.34
2023-01-27T20:15:42.375Z,1.36
2023-01-27T20:18:18.965Z,1.39
2023-01-27T20:20:46.680Z,1.40
2023-01-27T20:23:16.428Z,1.45
2023-01-27T20:25:43.269Z,1.42
2023-01-27T20:28:10.700Z,1.42
2023-01-27T20:30:38.806Z,1.42
2023-01-27T20:33:05.896Z,1.43
2023-01-27T20:35:32.505Z,1.43
2023-01-27T20:37:59.112Z,1.42
2023-01-27T20:40:27.986Z,1.40
2023-01-27T20:42:55.194Z,1.40
2023-01-27T20:45:22.321Z,1.38
2023-01-27T20:47:50.534Z,1.40
2023-01-27T20:50:17.908Z,1.41
2023-01-27T20:52:44.904Z,1.42
2023-01-27T20:55:13.784Z,1.40
2023-01-27T20:57:40.979Z,1.38
2023-01-27T21:00:08.849Z,1.32
2023-01-27T21:02:35.420Z,1.33
2023-01-27T21:05:02.023Z,1.35
2023-01-27T21:07:28.615Z,1.39
2023-01-27T21:09:55.189Z,1.35
2023-01-27T21:12:21.913Z,1.34
2023-01-27T21:14:48.699Z,1.36
2023-01-27T21:17:15.498Z,1.36
2023-01-27T21:19:42.092Z,1.35
2023-01-27T21:22:08.729Z,1.37
2023-01-27T21:24:35.653Z,1.37
2023-01-27T21:27:04.475Z,1.39
2023-01-27T21:29:31.179Z,1.37
2023-01-27T21:31:57.799Z,1.36
2023-01-27T21:34:24.471Z,1.33
2023-01-27T21:36:51.055Z,1.36
2023-01-27T21:39:17.587Z,1.36
2023-01-27T21:41:52.851Z,1.37
2023-01-27T21:44:46.943Z,1.40
2023-01-27T21:47:18.901Z,1.39
2023-01-27T21:50:02.041Z,1.35
2023-01-27T21:52:39.528Z,1.36
2023-01-27T21:55:09.697Z,1.37
2023-01-27T21:57:36.527Z,1.39
2023-01-27T22:00:06.250Z,1.37
2023-01-27T22:02:32.997Z,1.38
2023-01-27T22:04:59.656Z,1.39
2023-01-27T22:07:27.096Z,1.38
2023-01-27T22:09:53.666Z,1.41
2023-01-27T22:12:21.875Z,1.41
2023-01-27T22:14:48.418Z,1.41
2023-01-27T22:17:15.492Z,1.40
2023-01-27T22:19:42.055Z,1.39
2023-01-27T22:22:11.952Z,1.36
2023-01-27T22:24:38.656Z,1.34
2023-01-27T22:27:05.289Z,1.34
2023-01-27T22:29:31.933Z,1.33
2023-01-27T22:31:58.533Z,1.34
2023-01-27T22:34:25.280Z,1.36
2023-01-27T22:36:52.155Z,1.38
2023-01-27T22:39:19.263Z,1.40
2023-01-27T22:41:47.366Z,1.40
2023-01-27T22:44:14.249Z,1.37
2023-01-27T22:46:42.639Z,1.37
2023-01-27T22:49:11.200Z,1.41
2023-01-27T22:51:37.948Z,1.39
2023-01-27T22:54:05.283Z,1.38
2023-01-27T22:56:32.162Z,1.35
2023-01-27T22:59:01.230Z,1.36
2023-01-27T23:01:28.178Z,1.35
2023-01-27T23:03:54.835Z,1.39
2023-01-27T23:06:21.458Z,1.40
2023-01-27T23:08:48.129Z,1.41
2023-01-27T23:11:14.771Z,1.42
2023-01-27T23:13:41.427Z,1.42
2023-01-27T23:16:09.582Z,1.42
2023-01-27T23:18:36.694Z,1.44
2023-01-27T23:21:06.335Z,1.42
2023-01-27T23:23:34.063Z,1.41
2023-01-27T23:26:00.640Z,1.38
2023-01-27T23:28:27.320Z,1.38
2023-01-27T23:30:54.061Z,1.38
2023-01-27T23:33:21.076Z,1.36
2023-01-27T23:35:48.375Z,1.34
2023-01-27T23:38:31.307Z,1.36
2023-01-27T23:41:03.055Z,1.38
2023-01-27T23:43:32.820Z,1.39
2023-01-27T23:46:00.274Z,1.38
2023-01-27T23:48:27.544Z,1.37
2023-01-27T23:50:55.001Z,1.32
2023-01-27T23:53:22.073Z,1.30
2023-01-27T23:55:58.602Z,1.23
2023-01-27T23:58:26.349Z,1.17
